sensor_id;sensor_type;location;lat;lon;timestamp;temperature;humidity
64937;SHT30;51452;47.698;19.050;2022-11-21T00:01:47;4.23;76.11
64937;SHT30;51452;47.698;19.050;2022-11-21T00:04:12;4.30;75.37
64937;SHT30;51452;47.698;19.050;2022-11-21T00:06:37;4.30;74.74
64937;SHT30;51452;47.698;19.050;2022-11-21T00:09:03;4.29;74.12
64937;SHT30;51452;47.698;19.050;2022-11-21T00:11:28;4.28;74.25
64937;SHT30;51452;47.698;19.050;2022-11-21T00:13:53;4.20;73.68
64937;SHT30;51452;47.698;19.050;2022-11-21T00:16:19;4.12;73.86
64937;SHT30;51452;47.698;19.050;2022-11-21T00:18:44;4.09;73.69
64937;SHT30;51452;47.698;19.050;2022-11-21T00:21:17;4.08;73.25
64937;SHT30;51452;47.698;19.050;2022-11-21T00:23:44;4.05;73.68
64937;SHT30;51452;47.698;19.050;2022-11-21T00:26:11;3.85;74.75
64937;SHT30;51452;47.698;19.050;2022-11-21T00:28:37;3.85;74.30
64937;SHT30;51452;47.698;19.050;2022-11-21T00:31:03;3.81;73.23
64937;SHT30;51452;47.698;19.050;2022-11-21T00:33:28;3.75;72.13
64937;SHT30;51452;47.698;19.050;2022-11-21T00:35:54;3.68;73.07
64937;SHT30;51452;47.698;19.050;2022-11-21T00:38:19;3.68;73.66
64937;SHT30;51452;47.698;19.050;2022-11-21T00:40:45;3.63;74.73
64937;SHT30;51452;47.698;19.050;2022-11-21T00:43:10;3.67;74.65
64937;SHT30;51452;47.698;19.050;2022-11-21T00:45:36;3.67;74.11
64937;SHT30;51452;47.698;19.050;2022-11-21T00:48:01;3.67;73.71
64937;SHT30;51452;47.698;19.050;2022-11-21T00:50:26;3.63;73.61
64937;SHT30;51452;47.698;19.050;2022-11-21T00:52:55;3.58;73.41
64937;SHT30;51452;47.698;19.050;2022-11-21T00:55:22;3.64;74.42
64937;SHT30;51452;47.698;19.050;2022-11-21T00:57:47;3.68;77.25
64937;SHT30;51452;47.698;19.050;2022-11-21T01:00:13;3.79;77.90
64937;SHT30;51452;47.698;19.050;2022-11-21T01:02:38;3.87;77.61
64937;SHT30;51452;47.698;19.050;2022-11-21T01:05:04;3.98;77.54
64937;SHT30;51452;47.698;19.050;2022-11-21T01:07:30;4.02;76.84
64937;SHT30;51452;47.698;19.050;2022-11-21T01:09:56;4.05;76.54
64937;SHT30;51452;47.698;19.050;2022-11-21T01:12:22;3.99;74.45
64937;SHT30;51452;47.698;19.050;2022-11-21T01:14:47;3.87;73.90
64937;SHT30;51452;47.698;19.050;2022-11-21T01:17:13;3.60;74.83
64937;SHT30;51452;47.698;19.050;2022-11-21T01:19:38;3.57;74.97
64937;SHT30;51452;47.698;19.050;2022-11-21T01:22:04;3.48;74.20
64937;SHT30;51452;47.698;19.050;2022-11-21T01:24:29;3.44;74.40
64937;SHT30;51452;47.698;19.050;2022-11-21T01:26:54;3.43;75.15
64937;SHT30;51452;47.698;19.050;2022-11-21T01:29:20;3.44;74.87
64937;SHT30;51452;47.698;19.050;2022-11-21T01:31:45;3.34;74.51
64937;SHT30;51452;47.698;19.050;2022-11-21T01:34:11;3.27;73.73
64937;SHT30;51452;47.698;19.050;2022-11-21T01:36:39;3.22;73.20
64937;SHT30;51452;47.698;19.050;2022-11-21T01:39:06;3.16;72.14
64937;SHT30;51452;47.698;19.050;2022-11-21T01:41:34;3.13;72.41
64937;SHT30;51452;47.698;19.050;2022-11-21T01:44:03;3.10;73.21
64937;SHT30;51452;47.698;19.050;2022-11-21T01:46:31;3.07;74.48
64937;SHT30;51452;47.698;19.050;2022-11-21T01:51:44;3.09;73.72
64937;SHT30;51452;47.698;19.050;2022-11-21T01:54:27;3.06;73.00
64937;SHT30;51452;47.698;19.050;2022-11-21T01:57:07;3.02;73.48
64937;SHT30;51452;47.698;19.050;2022-11-21T01:59:38;3.02;72.76
64937;SHT30;51452;47.698;19.050;2022-11-21T02:02:06;3.06;73.68
64937;SHT30;51452;47.698;19.050;2022-11-21T02:04:33;3.06;74.46
64937;SHT30;51452;47.698;19.050;2022-11-21T02:07:01;3.03;75.02
64937;SHT30;51452;47.698;19.050;2022-11-21T02:09:29;3.07;75.90
64937;SHT30;51452;47.698;19.050;2022-11-21T02:12:00;3.12;75.74
64937;SHT30;51452;47.698;19.050;2022-11-21T02:14:26;3.12;76.21
64937;SHT30;51452;47.698;19.050;2022-11-21T02:16:56;3.03;76.94
64937;SHT30;51452;47.698;19.050;2022-11-21T02:19:33;3.07;76.43
64937;SHT30;51452;47.698;19.050;2022-11-21T02:27:41;3.06;74.09
64937;SHT30;51452;47.698;19.050;2022-11-21T02:30:11;2.97;72.76
64937;SHT30;51452;47.698;19.050;2022-11-21T02:32:40;2.96;74.80
64937;SHT30;51452;47.698;19.050;2022-11-21T02:35:06;2.92;75.02
64937;SHT30;51452;47.698;19.050;2022-11-21T02:37:33;2.93;75.03
64937;SHT30;51452;47.698;19.050;2022-11-21T02:40:02;2.95;75.86
64937;SHT30;51452;47.698;19.050;2022-11-21T02:42:35;2.99;75.82
64937;SHT30;51452;47.698;19.050;2022-11-21T02:45:13;3.03;75.33
64937;SHT30;51452;47.698;19.050;2022-11-21T02:47:39;3.06;75.79
64937;SHT30;51452;47.698;19.050;2022-11-21T02:50:13;3.13;75.57
64937;SHT30;51452;47.698;19.050;2022-11-21T02:52:39;3.17;75.74
64937;SHT30;51452;47.698;19.050;2022-11-21T02:55:05;3.20;75.93
64937;SHT30;51452;47.698;19.050;2022-11-21T02:57:30;3.24;76.11
64937;SHT30;51452;47.698;19.050;2022-11-21T02:59:56;3.28;76.23
64937;SHT30;51452;47.698;19.050;2022-11-21T03:02:21;3.28;74.94
64937;SHT30;51452;47.698;19.050;2022-11-21T03:04:47;3.30;74.30
64937;SHT30;51452;47.698;19.050;2022-11-21T03:07:12;3.30;74.15
64937;SHT30;51452;47.698;19.050;2022-11-21T03:09:37;3.26;73.51
64937;SHT30;51452;47.698;19.050;2022-11-21T03:12:06;3.19;73.47
64937;SHT30;51452;47.698;19.050;2022-11-21T03:14:33;3.17;73.34
64937;SHT30;51452;47.698;19.050;2022-11-21T03:16:58;3.16;74.72
64937;SHT30;51452;47.698;19.050;2022-11-21T03:19:24;3.17;74.42
64937;SHT30;51452;47.698;19.050;2022-11-21T03:21:49;3.15;73.29
64937;SHT30;51452;47.698;19.050;2022-11-21T03:24:15;3.10;73.82
64937;SHT30;51452;47.698;19.050;2022-11-21T03:26:40;3.12;74.63
64937;SHT30;51452;47.698;19.050;2022-11-21T03:29:05;3.15;75.16
64937;SHT30;51452;47.698;19.050;2022-11-21T03:31:31;3.17;74.90
64937;SHT30;51452;47.698;19.050;2022-11-21T03:33:56;3.20;74.60
64937;SHT30;51452;47.698;19.050;2022-11-21T03:36:22;3.16;77.59
64937;SHT30;51452;47.698;19.050;2022-11-21T03:38:47;3.15;79.75
64937;SHT30;51452;47.698;19.050;2022-11-21T03:41:12;3.09;80.99
64937;SHT30;51452;47.698;19.050;2022-11-21T03:46:21;3.17;81.28
64937;SHT30;51452;47.698;19.050;2022-11-21T03:48:46;3.28;80.69
64937;SHT30;51452;47.698;19.050;2022-11-21T03:51:12;3.31;80.03
64937;SHT30;51452;47.698;19.050;2022-11-21T03:53:37;3.34;78.04
64937;SHT30;51452;47.698;19.050;2022-11-21T03:56:03;3.31;76.29
64937;SHT30;51452;47.698;19.050;2022-11-21T03:58:28;3.24;75.96
64937;SHT30;51452;47.698;19.050;2022-11-21T04:00:54;3.20;75.95
64937;SHT30;51452;47.698;19.050;2022-11-21T04:03:19;3.19;77.38
64937;SHT30;51452;47.698;19.050;2022-11-21T04:05:44;3.23;77.73
64937;SHT30;51452;47.698;19.050;2022-11-21T04:08:10;3.20;77.75
64937;SHT30;51452;47.698;19.050;2022-11-21T04:10:35;3.27;78.91
64937;SHT30;51452;47.698;19.050;2022-11-21T04:13:00;3.33;78.65
64937;SHT30;51452;47.698;19.050;2022-11-21T04:15:26;3.46;81.14
64937;SHT30;51452;47.698;19.050;2022-11-21T04:17:54;3.60;82.78
64937;SHT30;51452;47.698;19.050;2022-11-21T04:20:20;3.77;82.90
64937;SHT30;51452;47.698;19.050;2022-11-21T04:22:45;3.87;82.33
64937;SHT30;51452;47.698;19.050;2022-11-21T04:25:10;3.85;81.76
64937;SHT30;51452;47.698;19.050;2022-11-21T04:27:37;3.84;82.02
64937;SHT30;51452;47.698;19.050;2022-11-21T04:30:06;3.85;81.67
64937;SHT30;51452;47.698;19.050;2022-11-21T04:32:31;3.94;81.29
64937;SHT30;51452;47.698;19.050;2022-11-21T04:34:57;3.94;81.83
64937;SHT30;51452;47.698;19.050;2022-11-21T04:37:22;3.98;81.47
64937;SHT30;51452;47.698;19.050;2022-11-21T04:39:47;4.08;81.13
64937;SHT30;51452;47.698;19.050;2022-11-21T04:42:13;4.01;80.78
64937;SHT30;51452;47.698;19.050;2022-11-21T04:44:38;4.09;79.86
64937;SHT30;51452;47.698;19.050;2022-11-21T04:47:03;4.08;78.70
64937;SHT30;51452;47.698;19.050;2022-11-21T04:49:29;4.03;77.61
64937;SHT30;51452;47.698;19.050;2022-11-21T04:51:54;3.92;76.07
64937;SHT30;51452;47.698;19.050;2022-11-21T04:54:19;3.82;75.43
64937;SHT30;51452;47.698;19.050;2022-11-21T04:56:45;3.71;75.45
64937;SHT30;51452;47.698;19.050;2022-11-21T04:59:10;3.66;75.56
64937;SHT30;51452;47.698;19.050;2022-11-21T05:01:37;3.56;77.11
64937;SHT30;51452;47.698;19.050;2022-11-21T05:04:02;3.57;77.16
64937;SHT30;51452;47.698;19.050;2022-11-21T05:06:28;3.57;76.46
64937;SHT30;51452;47.698;19.050;2022-11-21T05:08:53;3.56;76.16
64937;SHT30;51452;47.698;19.050;2022-11-21T05:11:18;3.54;75.70
64937;SHT30;51452;47.698;19.050;2022-11-21T05:14:02;3.47;75.06
64937;SHT30;51452;47.698;19.050;2022-11-21T05:16:28;3.37;74.16
64937;SHT30;51452;47.698;19.050;2022-11-21T05:18:53;3.33;75.07
64937;SHT30;51452;47.698;19.050;2022-11-21T05:21:18;3.28;74.82
64937;SHT30;51452;47.698;19.050;2022-11-21T05:23:44;3.26;74.89
64937;SHT30;51452;47.698;19.050;2022-11-21T05:26:09;3.20;74.53
64937;SHT30;51452;47.698;19.050;2022-11-21T05:28:34;3.17;74.04
64937;SHT30;51452;47.698;19.050;2022-11-21T05:31:00;3.13;74.70
64937;SHT30;51452;47.698;19.050;2022-11-21T05:33:25;3.12;74.66
64937;SHT30;51452;47.698;19.050;2022-11-21T05:35:50;3.02;73.66
64937;SHT30;51452;47.698;19.050;2022-11-21T05:38:16;2.86;73.12
64937;SHT30;51452;47.698;19.050;2022-11-21T05:40:41;2.85;73.02
64937;SHT30;51452;47.698;19.050;2022-11-21T05:43:10;2.82;72.67
64937;SHT30;51452;47.698;19.050;2022-11-21T05:45:55;2.71;72.82
64937;SHT30;51452;47.698;19.050;2022-11-21T05:48:20;2.65;72.82
64937;SHT30;51452;47.698;19.050;2022-11-21T05:50:47;2.64;73.51
64937;SHT30;51452;47.698;19.050;2022-11-21T05:53:13;2.59;73.74
64937;SHT30;51452;47.698;19.050;2022-11-21T05:55:39;2.55;73.64
64937;SHT30;51452;47.698;19.050;2022-11-21T05:58:04;2.52;74.36
64937;SHT30;51452;47.698;19.050;2022-11-21T06:00:29;2.44;75.08
64937;SHT30;51452;47.698;19.050;2022-11-21T06:02:56;2.52;75.71
64937;SHT30;51452;47.698;19.050;2022-11-21T06:05:40;2.48;75.87
64937;SHT30;51452;47.698;19.050;2022-11-21T06:08:05;2.54;74.82
64937;SHT30;51452;47.698;19.050;2022-11-21T06:10:31;2.49;74.44
64937;SHT30;51452;47.698;19.050;2022-11-21T06:13:00;2.38;74.30
64937;SHT30;51452;47.698;19.050;2022-11-21T06:15:25;2.33;74.64
64937;SHT30;51452;47.698;19.050;2022-11-21T06:17:51;2.28;75.11
64937;SHT30;51452;47.698;19.050;2022-11-21T06:20:16;2.35;75.40
64937;SHT30;51452;47.698;19.050;2022-11-21T06:22:42;2.33;75.89
64937;SHT30;51452;47.698;19.050;2022-11-21T06:25:07;2.31;76.16
64937;SHT30;51452;47.698;19.050;2022-11-21T06:27:33;2.18;77.55
64937;SHT30;51452;47.698;19.050;2022-11-21T06:29:58;2.28;77.87
64937;SHT30;51452;47.698;19.050;2022-11-21T06:32:23;2.35;78.11
64937;SHT30;51452;47.698;19.050;2022-11-21T06:34:49;2.41;78.41
64937;SHT30;51452;47.698;19.050;2022-11-21T06:37:14;2.37;78.77
64937;SHT30;51452;47.698;19.050;2022-11-21T06:39:39;2.35;79.30
64937;SHT30;51452;47.698;19.050;2022-11-21T06:42:05;2.37;79.72
64937;SHT30;51452;47.698;19.050;2022-11-21T06:44:31;2.48;79.86
64937;SHT30;51452;47.698;19.050;2022-11-21T06:46:56;2.57;79.78
64937;SHT30;51452;47.698;19.050;2022-11-21T06:49:21;2.62;79.27
64937;SHT30;51452;47.698;19.050;2022-11-21T06:51:47;2.74;79.07
64937;SHT30;51452;47.698;19.050;2022-11-21T06:54:12;2.81;78.66
64937;SHT30;51452;47.698;19.050;2022-11-21T06:56:37;2.88;78.32
64937;SHT30;51452;47.698;19.050;2022-11-21T06:59:03;2.92;78.44
64937;SHT30;51452;47.698;19.050;2022-11-21T07:01:28;3.02;78.47
64937;SHT30;51452;47.698;19.050;2022-11-21T07:03:53;3.10;78.98
64937;SHT30;51452;47.698;19.050;2022-11-21T07:06:19;3.19;79.23
64937;SHT30;51452;47.698;19.050;2022-11-21T07:08:44;3.27;79.39
64937;SHT30;51452;47.698;19.050;2022-11-21T07:11:11;3.30;78.91
64937;SHT30;51452;47.698;19.050;2022-11-21T07:13:37;3.30;78.60
64937;SHT30;51452;47.698;19.050;2022-11-21T07:16:07;3.34;77.52
64937;SHT30;51452;47.698;19.050;2022-11-21T07:18:33;3.37;77.52
64937;SHT30;51452;47.698;19.050;2022-11-21T07:21:00;3.38;78.40
64937;SHT30;51452;47.698;19.050;2022-11-21T07:23:26;3.41;78.83
64937;SHT30;51452;47.698;19.050;2022-11-21T07:25:52;3.40;79.25
64937;SHT30;51452;47.698;19.050;2022-11-21T07:28:17;3.43;79.13
64937;SHT30;51452;47.698;19.050;2022-11-21T07:30:43;3.41;79.11
64937;SHT30;51452;47.698;19.050;2022-11-21T07:33:08;3.40;79.51
64937;SHT30;51452;47.698;19.050;2022-11-21T07:35:34;3.43;79.67
64937;SHT30;51452;47.698;19.050;2022-11-21T07:38:00;3.48;79.38
64937;SHT30;51452;47.698;19.050;2022-11-21T07:40:26;3.57;78.92
64937;SHT30;51452;47.698;19.050;2022-11-21T07:42:52;3.67;78.38
64937;SHT30;51452;47.698;19.050;2022-11-21T07:45:17;3.75;77.88
64937;SHT30;51452;47.698;19.050;2022-11-21T07:47:43;3.85;77.57
64937;SHT30;51452;47.698;19.050;2022-11-21T07:50:10;3.89;77.58
64937;SHT30;51452;47.698;19.050;2022-11-21T07:52:36;3.87;77.62
64937;SHT30;51452;47.698;19.050;2022-11-21T07:55:02;3.94;77.55
64937;SHT30;51452;47.698;19.050;2022-11-21T07:57:29;4.01;77.44
64937;SHT30;51452;47.698;19.050;2022-11-21T07:59:54;4.10;77.27
64937;SHT30;51452;47.698;19.050;2022-11-21T08:02:22;4.16;77.29
64937;SHT30;51452;47.698;19.050;2022-11-21T08:04:48;4.20;77.96
64937;SHT30;51452;47.698;19.050;2022-11-21T08:07:18;4.36;77.62
64937;SHT30;51452;47.698;19.050;2022-11-21T08:09:44;4.42;77.45
64937;SHT30;51452;47.698;19.050;2022-11-21T08:12:10;4.54;77.17
64937;SHT30;51452;47.698;19.050;2022-11-21T08:14:36;4.66;76.94
64937;SHT30;51452;47.698;19.050;2022-11-21T08:17:01;4.74;76.61
64937;SHT30;51452;47.698;19.050;2022-11-21T08:19:27;4.83;76.53
64937;SHT30;51452;47.698;19.050;2022-11-21T08:21:52;4.92;76.36
64937;SHT30;51452;47.698;19.050;2022-11-21T08:24:17;5.02;76.16
64937;SHT30;51452;47.698;19.050;2022-11-21T08:26:44;5.14;76.66
64937;SHT30;51452;47.698;19.050;2022-11-21T08:29:12;5.31;76.63
64937;SHT30;51452;47.698;19.050;2022-11-21T08:31:39;5.35;76.83
64937;SHT30;51452;47.698;19.050;2022-11-21T08:34:05;5.32;76.44
64937;SHT30;51452;47.698;19.050;2022-11-21T08:36:30;5.35;76.08
64937;SHT30;51452;47.698;19.050;2022-11-21T08:38:55;5.36;75.68
64937;SHT30;51452;47.698;19.050;2022-11-21T08:41:21;5.24;75.05
64937;SHT30;51452;47.698;19.050;2022-11-21T08:44:05;5.14;74.71
64937;SHT30;51452;47.698;19.050;2022-11-21T08:46:32;5.08;74.81
64937;SHT30;51452;47.698;19.050;2022-11-21T08:48:59;5.05;74.79
64937;SHT30;51452;47.698;19.050;2022-11-21T08:51:25;5.08;75.07
64937;SHT30;51452;47.698;19.050;2022-11-21T08:53:50;5.08;75.21
64937;SHT30;51452;47.698;19.050;2022-11-21T08:56:15;5.12;75.25
64937;SHT30;51452;47.698;19.050;2022-11-21T08:58:41;5.11;75.31
64937;SHT30;51452;47.698;19.050;2022-11-21T09:01:06;5.14;75.19
64937;SHT30;51452;47.698;19.050;2022-11-21T09:03:32;5.15;75.19
64937;SHT30;51452;47.698;19.050;2022-11-21T09:05:58;5.11;75.41
64937;SHT30;51452;47.698;19.050;2022-11-21T09:08:24;5.04;75.50
64937;SHT30;51452;47.698;19.050;2022-11-21T09:10:50;4.87;75.92
64937;SHT30;51452;47.698;19.050;2022-11-21T09:13:15;4.88;76.36
64937;SHT30;51452;47.698;19.050;2022-11-21T09:15:41;4.92;76.34
64937;SHT30;51452;47.698;19.050;2022-11-21T09:18:24;4.90;76.19
64937;SHT30;51452;47.698;19.050;2022-11-21T09:20:50;4.94;76.54
64937;SHT30;51452;47.698;19.050;2022-11-21T09:23:15;5.00;76.49
64937;SHT30;51452;47.698;19.050;2022-11-21T09:25:42;4.83;76.86
64937;SHT30;51452;47.698;19.050;2022-11-21T09:28:09;4.69;77.05
64937;SHT30;51452;47.698;19.050;2022-11-21T09:30:35;4.77;77.17
64937;SHT30;51452;47.698;19.050;2022-11-21T09:33:08;4.85;77.02
64937;SHT30;51452;47.698;19.050;2022-11-21T09:35:34;4.92;76.71
64937;SHT30;51452;47.698;19.050;2022-11-21T09:38:00;4.92;76.20
64937;SHT30;51452;47.698;19.050;2022-11-21T09:40:25;4.98;75.92
64937;SHT30;51452;47.698;19.050;2022-11-21T09:46:12;5.08;75.93
64937;SHT30;51452;47.698;19.050;2022-11-21T09:48:50;5.17;75.74
64937;SHT30;51452;47.698;19.050;2022-11-21T09:51:18;5.15;75.52
64937;SHT30;51452;47.698;19.050;2022-11-21T09:54:01;5.24;75.61
64937;SHT30;51452;47.698;19.050;2022-11-21T09:56:30;5.35;75.63
64937;SHT30;51452;47.698;19.050;2022-11-21T09:59:31;5.46;75.38
64937;SHT30;51452;47.698;19.050;2022-11-21T10:01:58;5.52;75.63
64937;SHT30;51452;47.698;19.050;2022-11-21T10:04:25;5.62;75.45
64937;SHT30;51452;47.698;19.050;2022-11-21T10:06:57;5.65;75.50
64937;SHT30;51452;47.698;19.050;2022-11-21T10:29:03;5.93;75.39
64937;SHT30;51452;47.698;19.050;2022-11-21T10:31:37;5.99;75.57
64937;SHT30;51452;47.698;19.050;2022-11-21T10:34:04;6.01;75.50
64937;SHT30;51452;47.698;19.050;2022-11-21T10:36:38;6.10;75.52
64937;SHT30;51452;47.698;19.050;2022-11-21T10:39:32;6.09;75.33
64937;SHT30;51452;47.698;19.050;2022-11-21T10:42:08;6.16;75.05
64937;SHT30;51452;47.698;19.050;2022-11-21T10:44:36;6.22;75.02
64937;SHT30;51452;47.698;19.050;2022-11-21T10:47:22;6.34;74.77
64937;SHT30;51452;47.698;19.050;2022-11-21T10:50:27;6.28;74.34
64937;SHT30;51452;47.698;19.050;2022-11-21T10:53:04;6.38;74.45
64937;SHT30;51452;47.698;19.050;2022-11-21T10:55:59;6.40;74.34
64937;SHT30;51452;47.698;19.050;2022-11-21T10:58:42;6.42;74.23
64937;SHT30;51452;47.698;19.050;2022-11-21T11:01:21;6.45;74.19
64937;SHT30;51452;47.698;19.050;2022-11-21T11:04:04;6.37;74.36
64937;SHT30;51452;47.698;19.050;2022-11-21T11:06:29;6.49;74.62
64937;SHT30;51452;47.698;19.050;2022-11-21T11:08:55;6.51;74.30
64937;SHT30;51452;47.698;19.050;2022-11-21T11:11:21;6.52;74.11
64937;SHT30;51452;47.698;19.050;2022-11-21T11:13:56;6.48;74.30
64937;SHT30;51452;47.698;19.050;2022-11-21T11:16:22;6.45;74.75
64937;SHT30;51452;47.698;19.050;2022-11-21T11:21:28;6.48;75.12
64937;SHT30;51452;47.698;19.050;2022-11-21T11:29:21;6.51;75.14
64937;SHT30;51452;47.698;19.050;2022-11-21T11:32:00;6.52;75.22
64937;SHT30;51452;47.698;19.050;2022-11-21T11:34:28;6.49;75.40
64937;SHT30;51452;47.698;19.050;2022-11-21T11:37:11;6.45;75.48
64937;SHT30;51452;47.698;19.050;2022-11-21T11:42:30;6.49;75.72
64937;SHT30;51452;47.698;19.050;2022-11-21T11:48:14;6.64;76.18
64937;SHT30;51452;47.698;19.050;2022-11-21T11:50:55;6.64;76.02
64937;SHT30;51452;47.698;19.050;2022-11-21T11:53:24;6.69;75.64
64937;SHT30;51452;47.698;19.050;2022-11-21T11:56:00;6.65;75.55
64937;SHT30;51452;47.698;19.050;2022-11-21T11:58:39;6.69;75.17
64937;SHT30;51452;47.698;19.050;2022-11-21T12:03:58;6.79;74.37
64937;SHT30;51452;47.698;19.050;2022-11-21T12:06:30;6.85;74.34
64937;SHT30;51452;47.698;19.050;2022-11-21T12:09:01;6.75;75.34
64937;SHT30;51452;47.698;19.050;2022-11-21T12:11:40;6.83;75.19
64937;SHT30;51452;47.698;19.050;2022-11-21T12:17:26;6.72;74.89
64937;SHT30;51452;47.698;19.050;2022-11-21T12:19:55;6.71;74.88
64937;SHT30;51452;47.698;19.050;2022-11-21T12:22:22;6.73;74.75
64937;SHT30;51452;47.698;19.050;2022-11-21T12:24:47;6.68;74.60
64937;SHT30;51452;47.698;19.050;2022-11-21T12:27:30;6.65;74.70
64937;SHT30;51452;47.698;19.050;2022-11-21T12:33:04;6.75;74.43
64937;SHT30;51452;47.698;19.050;2022-11-21T12:52:39;7.09;74.62
64937;SHT30;51452;47.698;19.050;2022-11-21T13:00:51;7.41;74.07
64937;SHT30;51452;47.698;19.050;2022-11-21T13:03:50;7.43;74.79
64937;SHT30;51452;47.698;19.050;2022-11-21T13:06:21;7.44;74.69
64937;SHT30;51452;47.698;19.050;2022-11-21T13:08:48;7.54;74.41
64937;SHT30;51452;47.698;19.050;2022-11-21T13:14:59;7.47;73.54
64937;SHT30;51452;47.698;19.050;2022-11-21T13:20:10;7.51;73.26
64937;SHT30;51452;47.698;19.050;2022-11-21T13:30:49;7.40;73.53
64937;SHT30;51452;47.698;19.050;2022-11-21T13:36:03;7.43;74.16
64937;SHT30;51452;47.698;19.050;2022-11-21T13:38:30;7.46;74.51
64937;SHT30;51452;47.698;19.050;2022-11-21T13:40:55;7.48;74.17
64937;SHT30;51452;47.698;19.050;2022-11-21T13:43:39;7.44;74.32
64937;SHT30;51452;47.698;19.050;2022-11-21T13:46:04;7.33;74.45
64937;SHT30;51452;47.698;19.050;2022-11-21T13:51:37;7.23;74.23
64937;SHT30;51452;47.698;19.050;2022-11-21T13:57:24;7.12;74.34
64937;SHT30;51452;47.698;19.050;2022-11-21T14:03:03;7.04;74.49
64937;SHT30;51452;47.698;19.050;2022-11-21T14:08:21;6.95;74.35
64937;SHT30;51452;47.698;19.050;2022-11-21T14:10:49;6.93;74.15
64937;SHT30;51452;47.698;19.050;2022-11-21T14:13:28;6.85;74.22
64937;SHT30;51452;47.698;19.050;2022-11-21T14:18:42;6.79;74.70
64937;SHT30;51452;47.698;19.050;2022-11-21T14:21:17;6.83;74.62
64937;SHT30;51452;47.698;19.050;2022-11-21T14:23:43;6.86;74.54
64937;SHT30;51452;47.698;19.050;2022-11-21T14:26:12;6.81;74.74
64937;SHT30;51452;47.698;19.050;2022-11-21T14:28:38;6.82;74.70
64937;SHT30;51452;47.698;19.050;2022-11-21T14:31:06;6.86;74.49
64937;SHT30;51452;47.698;19.050;2022-11-21T14:33:39;6.83;74.52
64937;SHT30;51452;47.698;19.050;2022-11-21T14:38:47;6.78;74.50
64937;SHT30;51452;47.698;19.050;2022-11-21T14:43:49;6.82;74.85
64937;SHT30;51452;47.698;19.050;2022-11-21T14:46:15;6.78;74.92
64937;SHT30;51452;47.698;19.050;2022-11-21T14:48:43;6.81;74.80
64937;SHT30;51452;47.698;19.050;2022-11-21T14:51:10;6.79;74.96
64937;SHT30;51452;47.698;19.050;2022-11-21T14:53:40;6.75;74.82
64937;SHT30;51452;47.698;19.050;2022-11-21T14:56:10;6.73;74.92
64937;SHT30;51452;47.698;19.050;2022-11-21T14:58:36;6.69;74.86
64937;SHT30;51452;47.698;19.050;2022-11-21T15:01:12;6.65;74.98
64937;SHT30;51452;47.698;19.050;2022-11-21T15:03:54;6.58;75.18
64937;SHT30;51452;47.698;19.050;2022-11-21T15:06:20;6.55;75.23
64937;SHT30;51452;47.698;19.050;2022-11-21T15:08:45;6.49;75.11
64937;SHT30;51452;47.698;19.050;2022-11-21T15:11:11;6.45;75.19
64937;SHT30;51452;47.698;19.050;2022-11-21T15:13:38;6.38;75.28
64937;SHT30;51452;47.698;19.050;2022-11-21T15:16:04;6.34;75.29
64937;SHT30;51452;47.698;19.050;2022-11-21T15:18:30;6.28;75.01
64937;SHT30;51452;47.698;19.050;2022-11-21T15:20:58;6.24;74.87
64937;SHT30;51452;47.698;19.050;2022-11-21T15:25:57;6.16;75.17
64937;SHT30;51452;47.698;19.050;2022-11-21T15:28:24;6.17;75.05
64937;SHT30;51452;47.698;19.050;2022-11-21T15:31:18;6.10;75.72
64937;SHT30;51452;47.698;19.050;2022-11-21T15:33:59;6.09;75.89
64937;SHT30;51452;47.698;19.050;2022-11-21T15:36:25;6.14;75.55
64937;SHT30;51452;47.698;19.050;2022-11-21T15:38:51;6.11;75.14
64937;SHT30;51452;47.698;19.050;2022-11-21T15:43:48;6.04;75.70
64937;SHT30;51452;47.698;19.050;2022-11-21T15:46:30;6.01;75.80
64937;SHT30;51452;47.698;19.050;2022-11-21T15:48:57;6.01;75.99
64937;SHT30;51452;47.698;19.050;2022-11-21T15:51:46;6.00;75.85
64937;SHT30;51452;47.698;19.050;2022-11-21T15:54:12;5.99;75.72
64937;SHT30;51452;47.698;19.050;2022-11-21T15:56:38;6.07;75.46
64937;SHT30;51452;47.698;19.050;2022-11-21T15:59:05;6.01;75.69
64937;SHT30;51452;47.698;19.050;2022-11-21T16:01:30;6.03;75.65
64937;SHT30;51452;47.698;19.050;2022-11-21T16:04:02;6.03;75.96
64937;SHT30;51452;47.698;19.050;2022-11-21T16:06:28;6.03;76.22
64937;SHT30;51452;47.698;19.050;2022-11-21T16:08:55;6.06;76.19
64937;SHT30;51452;47.698;19.050;2022-11-21T16:11:34;5.96;76.64
64937;SHT30;51452;47.698;19.050;2022-11-21T16:14:03;5.91;76.87
64937;SHT30;51452;47.698;19.050;2022-11-21T16:16:31;5.91;77.61
64937;SHT30;51452;47.698;19.050;2022-11-21T16:18:57;5.96;77.38
64937;SHT30;51452;47.698;19.050;2022-11-21T16:21:23;5.93;77.33
64937;SHT30;51452;47.698;19.050;2022-11-21T16:23:49;6.00;77.03
64937;SHT30;51452;47.698;19.050;2022-11-21T16:26:14;6.00;76.53
64937;SHT30;51452;47.698;19.050;2022-11-21T16:28:40;6.06;76.19
64937;SHT30;51452;47.698;19.050;2022-11-21T16:31:05;5.97;75.93
64937;SHT30;51452;47.698;19.050;2022-11-21T16:33:32;6.00;75.91
64937;SHT30;51452;47.698;19.050;2022-11-21T16:35:58;5.90;76.39
64937;SHT30;51452;47.698;19.050;2022-11-21T16:38:25;5.86;76.49
64937;SHT30;51452;47.698;19.050;2022-11-21T16:40:56;5.85;76.17
64937;SHT30;51452;47.698;19.050;2022-11-21T16:43:22;5.77;76.08
64937;SHT30;51452;47.698;19.050;2022-11-21T16:45:48;5.73;75.85
64937;SHT30;51452;47.698;19.050;2022-11-21T16:48:13;5.73;75.15
64937;SHT30;51452;47.698;19.050;2022-11-21T16:50:39;5.69;75.18
64937;SHT30;51452;47.698;19.050;2022-11-21T16:53:04;5.65;75.50
64937;SHT30;51452;47.698;19.050;2022-11-21T16:55:29;5.59;75.49
64937;SHT30;51452;47.698;19.050;2022-11-21T16:57:55;5.59;75.41
64937;SHT30;51452;47.698;19.050;2022-11-21T17:00:23;5.62;74.95
64937;SHT30;51452;47.698;19.050;2022-11-21T17:02:48;5.59;75.11
64937;SHT30;51452;47.698;19.050;2022-11-21T17:05:15;5.56;75.79
64937;SHT30;51452;47.698;19.050;2022-11-21T17:07:40;5.55;76.01
64937;SHT30;51452;47.698;19.050;2022-11-21T17:10:06;5.52;75.36
64937;SHT30;51452;47.698;19.050;2022-11-21T17:12:37;5.45;74.18
64937;SHT30;51452;47.698;19.050;2022-11-21T17:15:04;5.38;74.26
64937;SHT30;51452;47.698;19.050;2022-11-21T17:17:30;5.32;74.36
64937;SHT30;51452;47.698;19.050;2022-11-21T17:19:55;5.28;74.96
64937;SHT30;51452;47.698;19.050;2022-11-21T17:22:21;5.21;75.82
64937;SHT30;51452;47.698;19.050;2022-11-21T17:24:49;5.21;76.15
64937;SHT30;51452;47.698;19.050;2022-11-21T17:27:16;5.27;75.49
64937;SHT30;51452;47.698;19.050;2022-11-21T17:29:41;5.27;75.19
64937;SHT30;51452;47.698;19.050;2022-11-21T17:32:07;5.24;75.38
64937;SHT30;51452;47.698;19.050;2022-11-21T17:34:32;5.24;75.96
64937;SHT30;51452;47.698;19.050;2022-11-21T17:36:57;5.28;75.79
64937;SHT30;51452;47.698;19.050;2022-11-21T17:39:23;5.27;75.25